Eunice, Missouri
Current Conditions -  °F | °C
As of 4:53 PM on Friday 31 Oct 2014 (Local Time) from KUNO Reporting Station
Clear Clear  
Wind Chill: 40°   Ceiling: Unl
Heat Index: 46°   Visibility: 10mi
Dew Point: 17°   Wind: 15mph
Humidity: 31%   Direction: 360°N
Pressure: 30.3"   Gusts: 22mph
Location:  37.24°N, 91.78°W
Report Text: KUNO 312153Z AUTO 36013G19KT 10SM CLR 08/M08 A3030 RMK AO2 SLP262 T00781083
Loading
Personal Weather Stations






























Interactive Weather Map
Tropical Storm Tracking
New forecast layout! Learn more

10-Day Weather Forecast

Advertisements
Track Severe Weather on mobile